createdAt,value
2022-08-19T00:00:44.953Z,12.05
2022-08-19T00:03:13.060Z,12.05
2022-08-19T00:05:42.735Z,11.88
2022-08-19T00:08:10.702Z,11.10
2022-08-19T00:10:38.735Z,12.15
2022-08-19T00:13:07.233Z,12.32
2022-08-19T00:15:35.457Z,12.77
2022-08-19T00:18:04.783Z,13.02
2022-08-19T00:20:32.821Z,12.25
2022-08-19T00:23:00.766Z,12.48
2022-08-19T00:25:30.215Z,12.80
2022-08-19T00:28:00.299Z,13.05
2022-08-19T00:30:29.003Z,11.93
2022-08-19T00:32:59.572Z,12.32
2022-08-19T00:35:28.381Z,12.68
2022-08-19T00:37:56.602Z,13.07
2022-08-19T00:40:26.140Z,12.90
2022-08-19T00:42:54.896Z,13.00
2022-08-19T00:45:29.665Z,13.23
2022-08-19T00:48:05.043Z,12.82
2022-08-19T00:50:34.015Z,12.82
2022-08-19T00:53:06.859Z,13.27
2022-08-19T00:55:35.063Z,13.80
2022-08-19T00:58:10.468Z,13.32
2022-08-19T01:00:38.970Z,13.65
2022-08-19T01:03:11.105Z,13.52
2022-08-19T01:05:42.012Z,12.98
2022-08-19T01:08:10.534Z,13.68
2022-08-19T01:11:00.294Z,13.75
2022-08-19T01:13:48.908Z,13.65
2022-08-19T01:16:21.034Z,14.60
2022-08-19T01:18:50.019Z,14.73
2022-08-19T01:21:58.390Z,15.38
2022-08-19T01:24:26.759Z,14.35
2022-08-19T01:26:55.748Z,15.27
2022-08-19T01:29:25.263Z,14.93
2022-08-19T01:31:54.752Z,14.35
2022-08-19T01:34:22.771Z,14.02
2022-08-19T01:36:50.948Z,15.00
2022-08-19T01:39:22.473Z,14.93
2022-08-19T01:41:51.160Z,14.80
2022-08-19T01:44:21.435Z,13.45
2022-08-19T01:46:50.477Z,14.32
2022-08-19T01:49:21.139Z,14.32
2022-08-19T01:51:53.149Z,14.30
2022-08-19T01:54:27.793Z,14.93
2022-08-19T01:57:09.729Z,14.10
2022-08-19T01:59:41.353Z,13.65
2022-08-19T02:02:09.455Z,13.52
2022-08-19T02:04:41.287Z,12.65
2022-08-19T02:07:09.761Z,13.65
2022-08-19T02:09:38.045Z,13.45
2022-08-19T02:12:08.811Z,12.75
2022-08-19T02:14:37.948Z,12.90
2022-08-19T02:17:06.127Z,13.43
2022-08-19T02:19:39.048Z,13.40
2022-08-19T02:22:08.976Z,12.70
2022-08-19T02:24:37.351Z,12.60
2022-08-19T02:27:11.666Z,13.27
2022-08-19T02:29:39.607Z,13.27
2022-08-19T02:32:10.756Z,13.85
2022-08-19T02:34:38.771Z,14.35
2022-08-19T02:37:27.897Z,14.13
2022-08-19T02:39:56.258Z,14.30
2022-08-19T02:42:24.853Z,13.23
2022-08-19T02:44:52.949Z,13.48
2022-08-19T02:47:22.213Z,12.35
2022-08-19T02:49:53.000Z,13.27
2022-08-19T02:52:21.233Z,13.07
2022-08-19T02:54:49.079Z,13.80
2022-08-19T02:57:17.082Z,13.65
2022-08-19T02:59:46.452Z,13.88
2022-08-19T03:02:14.405Z,13.38
2022-08-19T03:04:43.122Z,14.73
2022-08-19T03:07:14.654Z,12.93
2022-08-19T03:09:43.569Z,13.50
2022-08-19T03:12:12.181Z,14.38
2022-08-19T03:14:40.102Z,13.30
2022-08-19T03:17:09.026Z,12.75
2022-08-19T03:19:37.190Z,12.63
2022-08-19T03:22:05.748Z,12.10
2022-08-19T03:24:33.921Z,13.50
2022-08-19T03:27:01.788Z,13.35
2022-08-19T03:29:32.151Z,12.57
2022-08-19T03:32:05.886Z,13.73
2022-08-19T03:34:37.969Z,13.45
2022-08-19T03:37:10.338Z,13.82
2022-08-19T03:39:39.748Z,14.40
2022-08-19T03:42:32.992Z,13.45
2022-08-19T03:44:56.419Z,13.73
2022-08-19T03:47:24.496Z,13.43
2022-08-19T03:49:52.350Z,13.57
2022-08-19T03:52:20.391Z,13.60
2022-08-19T03:54:50.657Z,14.18
2022-08-19T03:57:18.501Z,13.77
2022-08-19T03:59:46.526Z,14.32
2022-08-19T04:02:15.279Z,13.75
2022-08-19T04:04:44.662Z,14.77
2022-08-19T04:07:17.186Z,13.45
2022-08-19T04:09:45.573Z,13.45
2022-08-19T04:12:15.273Z,13.15
2022-08-19T04:14:45.651Z,13.85
2022-08-19T04:17:14.957Z,14.02
2022-08-19T04:19:43.916Z,12.90
2022-08-19T04:22:12.551Z,14.10
2022-08-19T04:24:40.816Z,13.77
2022-08-19T04:27:08.871Z,14.32
2022-08-19T04:29:39.184Z,14.10
2022-08-19T04:32:08.404Z,14.75
2022-08-19T04:35:02.098Z,13.90
2022-08-19T04:37:34.866Z,14.20
2022-08-19T04:40:42.564Z,14.27
2022-08-19T04:43:21.688Z,13.57
2022-08-19T04:45:50.345Z,14.38
2022-08-19T04:48:28.118Z,14.25
2022-08-19T04:51:00.722Z,14.15
2022-08-19T04:53:37.837Z,14.32
2022-08-19T04:56:09.866Z,14.75
2022-08-19T04:58:39.347Z,13.73
2022-08-19T05:01:12.313Z,14.18
2022-08-19T05:03:40.381Z,14.82
2022-08-19T05:06:11.561Z,14.98
2022-08-19T05:08:44.111Z,15.18
2022-08-19T05:11:18.219Z,15.18
2022-08-19T05:13:47.542Z,13.45
2022-08-19T05:16:18.507Z,14.50
2022-08-19T05:19:05.392Z,13.77
2022-08-19T05:21:53.378Z,11.93
2022-08-19T05:24:23.077Z,11.20
2022-08-19T05:26:52.531Z,11.05
2022-08-19T05:29:22.405Z,10.27
2022-08-19T05:31:52.760Z,10.15
2022-08-19T05:34:23.048Z,9.80
2022-08-19T05:36:57.999Z,10.00
2022-08-19T05:39:28.735Z,10.00
2022-08-19T05:41:59.588Z,9.70
2022-08-19T05:44:33.051Z,9.60
2022-08-19T05:47:03.483Z,9.97
2022-08-19T05:49:32.130Z,10.02
2022-08-19T05:52:02.667Z,9.95
2022-08-19T05:54:31.022Z,10.60
2022-08-19T05:56:59.179Z,9.82
2022-08-19T05:59:26.995Z,10.07
2022-08-19T06:01:57.968Z,10.43
2022-08-19T06:04:26.307Z,11.10
2022-08-19T06:06:55.031Z,10.00
2022-08-19T06:09:24.007Z,11.02
2022-08-19T06:11:56.058Z,11.07
2022-08-19T06:14:27.883Z,10.65
2022-08-19T06:16:56.456Z,11.45
2022-08-19T06:19:25.276Z,10.90
2022-08-19T06:21:54.076Z,10.82
2022-08-19T06:24:25.576Z,10.45
2022-08-19T06:26:59.187Z,11.02
2022-08-19T06:29:30.973Z,10.68
2022-08-19T06:32:01.608Z,10.70
2022-08-19T06:34:31.956Z,11.50
2022-08-19T06:37:02.044Z,10.65
2022-08-19T06:39:35.129Z,10.73
2022-08-19T06:42:07.571Z,12.67
2022-08-19T06:44:42.821Z,11.93
2022-08-19T06:47:23.498Z,11.48
2022-08-19T06:50:03.853Z,10.35
2022-08-19T06:52:36.437Z,10.75
2022-08-19T06:55:06.215Z,10.35
2022-08-19T06:57:35.409Z,10.77
2022-08-19T07:00:04.591Z,10.27
2022-08-19T07:02:32.481Z,10.45
2022-08-19T07:05:03.418Z,10.07
2022-08-19T07:07:35.052Z,10.27
2022-08-19T07:10:06.220Z,11.25
2022-08-19T07:12:38.270Z,12.00
2022-08-19T07:15:09.538Z,12.75
2022-08-19T07:17:39.636Z,13.27
2022-08-19T07:20:11.358Z,13.80
2022-08-19T07:22:40.464Z,14.10
2022-08-19T07:25:10.458Z,14.77
2022-08-19T07:27:39.726Z,15.10
2022-08-19T07:30:12.174Z,15.82
2022-08-19T07:32:41.098Z,15.45
2022-08-19T07:35:10.465Z,16.70
2022-08-19T07:37:39.234Z,16.95
2022-08-19T07:40:08.843Z,15.63
2022-08-19T07:42:37.467Z,17.60
2022-08-19T07:45:07.872Z,16.95
2022-08-19T07:47:47.427Z,17.40
2022-08-19T07:50:20.582Z,17.50
2022-08-19T07:52:50.702Z,16.90
2022-08-19T07:55:41.225Z,17.98
2022-08-19T07:58:13.493Z,18.95
2022-08-19T08:00:42.558Z,18.67
2022-08-19T08:03:11.371Z,19.45
2022-08-19T08:05:58.297Z,19.05
2022-08-19T08:08:47.971Z,18.90
2022-08-19T08:11:20.725Z,18.58
2022-08-19T08:14:01.506Z,20.67
2022-08-19T08:16:39.745Z,19.77
2022-08-19T08:19:20.639Z,19.55
2022-08-19T08:21:56.424Z,19.23
2022-08-19T08:24:28.708Z,22.10
2022-08-19T08:26:58.738Z,23.05
2022-08-19T08:29:35.100Z,23.58
2022-08-19T08:32:04.555Z,23.05
2022-08-19T08:34:43.343Z,24.58
2022-08-19T08:37:11.238Z,22.63
2022-08-19T08:39:39.239Z,23.45
2022-08-19T08:42:23.961Z,23.00
2022-08-19T08:47:52.051Z,21.60
2022-08-19T08:50:36.628Z,21.00
2022-08-19T08:53:06.620Z,20.45
2022-08-19T08:55:37.418Z,20.00
2022-08-19T08:58:16.808Z,19.30
2022-08-19T09:00:47.622Z,19.77
2022-08-19T09:03:23.103Z,19.77
2022-08-19T09:06:11.955Z,18.13
2022-08-19T09:08:52.169Z,16.98
2022-08-19T09:11:45.143Z,16.40
2022-08-19T09:14:52.482Z,15.80
2022-08-19T09:17:31.523Z,15.93
2022-08-19T09:20:11.425Z,16.63
2022-08-19T09:22:41.645Z,15.85
2022-08-19T09:25:11.456Z,14.05
2022-08-19T09:27:43.010Z,15.13
2022-08-19T09:30:26.102Z,16.38
2022-08-19T09:32:54.851Z,15.30
2022-08-19T09:35:24.706Z,15.30
2022-08-19T09:37:57.751Z,15.18
2022-08-19T09:40:35.456Z,14.57
2022-08-19T09:43:09.869Z,14.45
2022-08-19T09:45:38.531Z,14.07
2022-08-19T09:48:07.553Z,15.00
2022-08-19T09:50:39.569Z,15.35
2022-08-19T09:53:20.189Z,15.85
2022-08-19T09:55:47.965Z,14.45
2022-08-19T09:58:15.856Z,13.85
2022-08-19T10:00:43.716Z,15.75
2022-08-19T10:03:18.772Z,15.27
2022-08-19T10:05:49.534Z,14.07
2022-08-19T10:08:26.797Z,14.68
2022-08-19T10:10:56.121Z,15.65
2022-08-19T10:13:27.073Z,14.60
2022-08-19T10:15:57.508Z,15.82
2022-08-19T10:18:26.486Z,15.02
2022-08-19T10:21:08.553Z,16.45
2022-08-19T10:23:39.111Z,13.52
2022-08-19T10:26:07.822Z,13.25
2022-08-19T10:28:40.026Z,11.40
2022-08-19T10:31:17.782Z,11.38
2022-08-19T10:33:53.804Z,9.77
2022-08-19T10:36:23.855Z,9.27
2022-08-19T10:38:56.855Z,9.65
2022-08-19T10:41:29.790Z,10.35
2022-08-19T10:44:04.158Z,9.52
2022-08-19T10:46:34.124Z,8.43
2022-08-19T10:49:03.928Z,9.05
2022-08-19T10:51:51.427Z,9.95
2022-08-19T10:54:24.326Z,10.90
2022-08-19T10:56:59.985Z,8.95
2022-08-19T10:59:35.236Z,9.50
2022-08-19T11:02:07.716Z,10.27
2022-08-19T11:04:35.925Z,10.88
2022-08-19T11:07:06.609Z,11.00
2022-08-19T11:09:40.693Z,12.60
2022-08-19T11:12:10.474Z,10.35
2022-08-19T11:14:39.576Z,10.48
2022-08-19T11:17:08.018Z,10.48
2022-08-19T11:19:36.532Z,9.90
2022-08-19T11:22:04.568Z,9.40
2022-08-19T11:24:33.664Z,7.63
2022-08-19T11:27:08.278Z,7.70
2022-08-19T11:29:38.607Z,7.32
2022-08-19T11:32:11.801Z,7.00
2022-08-19T11:34:40.620Z,8.47
2022-08-19T11:37:09.896Z,9.13
2022-08-19T11:39:38.720Z,10.23
2022-08-19T11:42:28.940Z,9.43
2022-08-19T11:44:56.914Z,9.68
2022-08-19T11:47:25.028Z,10.45
2022-08-19T11:49:54.385Z,11.00
2022-08-19T11:52:22.417Z,11.13
2022-08-19T11:54:50.461Z,10.02
2022-08-19T11:57:19.624Z,9.48
2022-08-19T11:59:53.788Z,9.00
2022-08-19T12:04:51.220Z,9.65
2022-08-19T12:07:19.789Z,9.35
2022-08-19T12:09:48.898Z,7.47
2022-08-19T12:12:17.671Z,6.97
2022-08-19T12:14:47.529Z,8.05
2022-08-19T12:17:16.284Z,7.88
2022-08-19T12:19:51.451Z,7.72
2022-08-19T12:22:21.671Z,6.75
2022-08-19T12:25:17.686Z,6.28
2022-08-19T12:28:04.449Z,6.80
2022-08-19T12:30:39.837Z,6.60
2022-08-19T12:33:26.134Z,6.35
2022-08-19T12:35:55.101Z,6.88
2022-08-19T12:38:25.337Z,6.20
2022-08-19T12:40:58.307Z,6.65
2022-08-19T12:43:31.820Z,6.78
2022-08-19T12:46:13.419Z,6.72
2022-08-19T12:49:20.669Z,6.38
2022-08-19T12:52:32.800Z,7.95
2022-08-19T12:55:22.161Z,7.38
2022-08-19T12:57:56.273Z,7.55
2022-08-19T13:00:28.865Z,6.32
2022-08-19T13:03:00.534Z,5.40
2022-08-19T13:05:39.644Z,5.70
2022-08-19T13:08:13.504Z,6.40
2022-08-19T13:10:42.519Z,6.03
2022-08-19T13:13:13.552Z,6.70
2022-08-19T13:18:29.461Z,6.90
2022-08-19T13:21:15.188Z,6.97
2022-08-19T13:23:44.090Z,6.90
2022-08-19T13:26:18.144Z,7.65
2022-08-19T13:29:09.081Z,6.97
2022-08-19T13:32:01.233Z,6.75
2022-08-19T13:34:36.708Z,6.22
2022-08-19T13:37:05.776Z,7.07
2022-08-19T13:39:35.190Z,7.82
2022-08-19T13:42:05.470Z,7.28
2022-08-19T13:44:33.504Z,6.95
2022-08-19T13:47:08.073Z,6.95
2022-08-19T13:49:37.594Z,6.82
2022-08-19T13:52:06.900Z,6.68
2022-08-19T13:54:34.878Z,8.02
2022-08-19T13:57:02.789Z,8.65
2022-08-19T13:59:30.708Z,8.10
2022-08-19T14:02:01.984Z,7.57
2022-08-19T14:04:30.111Z,7.20
2022-08-19T14:06:57.922Z,6.63
2022-08-19T14:09:25.824Z,7.47
2022-08-19T14:11:53.686Z,9.50
2022-08-19T14:14:23.735Z,7.75
2022-08-19T14:16:52.761Z,7.43
2022-08-19T14:19:20.728Z,10.18
2022-08-19T14:21:48.944Z,10.68
2022-08-19T14:24:16.777Z,12.27
2022-08-19T14:26:44.670Z,13.35
2022-08-19T14:29:13.481Z,14.00
2022-08-19T14:31:44.103Z,13.68
2022-08-19T14:34:13.632Z,14.63
2022-08-19T14:36:42.792Z,15.55
2022-08-19T14:39:10.748Z,14.60
2022-08-19T14:41:42.428Z,13.73
2022-08-19T14:44:13.299Z,14.68
2022-08-19T14:46:41.328Z,13.85
2022-08-19T14:49:17.357Z,13.30
2022-08-19T14:51:47.845Z,10.63
2022-08-19T14:54:15.783Z,10.05
2022-08-19T14:56:44.290Z,9.65
2022-08-19T14:59:12.328Z,12.23
2022-08-19T15:01:40.248Z,16.13
2022-08-19T15:04:08.830Z,16.50
2022-08-19T15:06:37.788Z,17.58
2022-08-19T15:09:06.814Z,17.65
2022-08-19T15:11:35.218Z,18.70
2022-08-19T15:14:03.650Z,18.73
2022-08-19T15:16:32.015Z,19.17
2022-08-19T15:19:01.017Z,18.77
2022-08-19T15:21:30.423Z,18.17
2022-08-19T15:23:59.724Z,18.77
2022-08-19T15:26:32.199Z,17.85
2022-08-19T15:29:01.527Z,17.90
2022-08-19T15:31:38.140Z,17.55
2022-08-19T15:34:09.859Z,19.33
2022-08-19T15:36:38.450Z,19.23
2022-08-19T15:39:07.903Z,19.67
2022-08-19T15:41:37.065Z,18.08
2022-08-19T15:44:13.164Z,18.23
2022-08-19T15:46:43.622Z,17.63
2022-08-19T15:49:14.909Z,17.20
2022-08-19T15:51:44.728Z,18.05
2022-08-19T15:54:15.843Z,17.23
2022-08-19T15:57:02.693Z,16.85
2022-08-19T15:59:49.544Z,16.40
2022-08-19T16:02:39.234Z,16.15
2022-08-19T16:05:28.601Z,15.38
2022-08-19T16:07:56.745Z,14.43
2022-08-19T16:10:27.869Z,15.10
2022-08-19T16:12:57.663Z,15.52
2022-08-19T16:15:30.456Z,15.02
2022-08-19T16:17:58.605Z,14.85
2022-08-19T16:20:28.717Z,14.25
2022-08-19T16:23:00.233Z,13.85
2022-08-19T16:25:28.988Z,13.88
2022-08-19T16:28:06.368Z,13.77
2022-08-19T16:30:40.587Z,14.20
2022-08-19T16:33:09.801Z,14.15
2022-08-19T16:35:38.621Z,14.32
2022-08-19T16:38:06.962Z,14.75
2022-08-19T16:40:35.909Z,14.00
2022-08-19T16:43:05.145Z,13.05
2022-08-19T16:45:39.163Z,12.73
2022-08-19T16:48:12.060Z,12.48
2022-08-19T16:50:49.148Z,12.25
2022-08-19T16:53:20.799Z,13.07
2022-08-19T16:55:53.972Z,11.38
2022-08-19T16:58:29.757Z,10.35
2022-08-19T17:01:03.465Z,9.77
2022-08-19T17:03:36.575Z,9.07
2022-08-19T17:06:17.844Z,8.90
2022-08-19T17:08:54.369Z,8.50
2022-08-19T17:11:24.581Z,8.02
2022-08-19T17:13:52.978Z,7.32
2022-08-19T17:16:26.691Z,7.78
2022-08-19T17:18:57.565Z,8.00
2022-08-19T17:21:29.697Z,8.13
2022-08-19T17:23:59.110Z,8.57
2022-08-19T17:26:28.604Z,8.85
2022-08-19T17:29:01.160Z,9.27
2022-08-19T17:31:31.720Z,8.95
2022-08-19T17:34:03.620Z,9.40
2022-08-19T17:36:35.838Z,9.15
2022-08-19T17:39:07.658Z,9.80
2022-08-19T17:41:35.643Z,8.30
2022-08-19T17:44:07.221Z,8.70
2022-08-19T17:46:35.867Z,8.63
2022-08-19T17:49:04.731Z,8.68
2022-08-19T17:51:42.145Z,5.55
2022-08-19T17:54:18.689Z,13.55
2022-08-19T17:56:50.304Z,15.20
2022-08-19T17:59:19.708Z,8.30
2022-08-19T18:01:54.724Z,8.52
2022-08-19T18:04:26.472Z,8.35
2022-08-19T18:06:55.924Z,8.48
2022-08-19T18:09:41.903Z,7.57
2022-08-19T18:12:14.289Z,7.65
2022-08-19T18:17:44.961Z,6.22
2022-08-19T18:20:21.166Z,6.28
2022-08-19T18:22:57.978Z,5.40
2022-08-19T18:25:51.510Z,5.72
2022-08-19T18:28:27.652Z,5.50
2022-08-19T18:31:10.896Z,5.72
2022-08-19T18:33:44.352Z,4.63
2022-08-19T18:36:54.906Z,6.55
2022-08-19T18:40:15.324Z,6.60
2022-08-19T18:43:10.621Z,5.68
2022-08-19T18:49:22.015Z,4.60
2022-08-19T18:51:53.471Z,4.80
2022-08-19T18:54:21.738Z,5.10
2022-08-19T18:57:03.333Z,5.05
2022-08-19T18:59:36.816Z,5.05
2022-08-19T19:02:12.147Z,4.90
2022-08-19T19:07:16.773Z,5.90
2022-08-19T19:09:49.066Z,4.45
2022-08-19T19:12:18.515Z,4.53
2022-08-19T19:14:50.154Z,5.55
2022-08-19T19:17:39.575Z,4.90
2022-08-19T19:23:46.534Z,5.43
2022-08-19T19:26:21.838Z,4.07
2022-08-19T19:28:52.431Z,4.93
2022-08-19T19:31:27.242Z,4.47
2022-08-19T19:36:29.996Z,4.50
2022-08-19T19:38:57.976Z,4.88
2022-08-19T19:44:30.958Z,4.65
2022-08-19T19:47:00.895Z,4.70
2022-08-19T19:49:32.475Z,4.32
2022-08-19T19:52:00.471Z,4.05
2022-08-19T19:54:28.606Z,4.57
2022-08-19T19:56:56.509Z,4.90
2022-08-19T19:59:24.479Z,4.75
2022-08-19T20:01:54.487Z,4.18
2022-08-19T20:04:25.256Z,5.18
2022-08-19T20:06:53.362Z,6.20
2022-08-19T20:09:21.874Z,6.90
2022-08-19T20:11:53.955Z,6.88
2022-08-19T20:14:32.529Z,7.13
2022-08-19T20:17:01.922Z,7.05
2022-08-19T20:19:37.829Z,7.35
2022-08-19T20:22:07.124Z,6.97
2022-08-19T20:24:37.924Z,7.60
2022-08-19T20:27:07.093Z,7.65
2022-08-19T20:29:39.314Z,7.45
2022-08-19T20:32:11.311Z,7.43
2022-08-19T20:34:40.553Z,7.50
2022-08-19T20:37:09.683Z,7.70
2022-08-19T20:39:38.929Z,7.90
2022-08-19T20:42:07.784Z,7.63
2022-08-19T20:44:41.405Z,7.78
2022-08-19T20:47:11.900Z,7.63
2022-08-19T20:49:39.958Z,7.45
2022-08-19T20:52:08.673Z,7.40
2022-08-19T20:54:36.771Z,6.88
2022-08-19T20:57:05.500Z,6.43
2022-08-19T20:59:33.624Z,6.70
2022-08-19T21:02:01.788Z,6.07
2022-08-19T21:04:30.420Z,6.32
2022-08-19T21:06:58.589Z,5.47
2022-08-19T21:09:32.418Z,5.70
2022-08-19T21:12:03.660Z,5.85
2022-08-19T21:14:31.632Z,6.00
2022-08-19T21:16:59.667Z,5.97
2022-08-19T21:19:27.541Z,5.80
2022-08-19T21:21:56.568Z,5.38
2022-08-19T21:24:31.679Z,5.28
2022-08-19T21:27:00.345Z,5.38
2022-08-19T21:29:28.921Z,4.90
2022-08-19T21:31:57.584Z,5.20
2022-08-19T21:34:25.937Z,5.10
2022-08-19T21:36:54.195Z,4.93
2022-08-19T21:39:22.643Z,4.50
2022-08-19T21:41:51.075Z,4.80
2022-08-19T21:44:19.438Z,4.70
2022-08-19T21:46:50.383Z,4.30
2022-08-19T21:49:18.678Z,4.40
2022-08-19T21:51:46.795Z,4.82
2022-08-19T21:54:14.701Z,4.53
2022-08-19T21:56:43.191Z,4.80
2022-08-19T21:59:11.357Z,4.18
2022-08-19T22:01:39.246Z,4.60
2022-08-19T22:04:10.332Z,4.70
2022-08-19T22:06:41.505Z,4.68
2022-08-19T22:09:09.431Z,4.15
2022-08-19T22:11:41.297Z,4.25
2022-08-19T22:14:09.680Z,4.55
2022-08-19T22:16:38.502Z,4.32
2022-08-19T22:19:07.170Z,4.75
2022-08-19T22:21:40.775Z,4.07
2022-08-19T22:24:09.804Z,4.43
2022-08-19T22:26:37.951Z,4.18
2022-08-19T22:29:08.822Z,4.40
2022-08-19T22:31:37.804Z,4.10
2022-08-19T22:34:06.778Z,4.22
2022-08-19T22:36:35.497Z,4.38
2022-08-19T22:39:04.764Z,4.60
2022-08-19T22:41:33.715Z,4.55
2022-08-19T22:44:02.374Z,4.25
2022-08-19T22:46:33.740Z,4.53
2022-08-19T22:49:01.811Z,4.35
2022-08-19T22:51:48.591Z,4.50
2022-08-19T22:54:16.714Z,4.22
2022-08-19T22:56:45.230Z,4.45
2022-08-19T22:59:13.151Z,4.80
2022-08-19T23:01:41.796Z,4.20
2022-08-19T23:04:10.507Z,4.32
2022-08-19T23:06:41.841Z,4.60
2022-08-19T23:09:10.940Z,5.15
2022-08-19T23:14:13.290Z,4.93
2022-08-19T23:16:41.932Z,4.78
2022-08-19T23:19:10.898Z,5.30
2022-08-19T23:21:41.489Z,4.70
2022-08-19T23:24:10.336Z,4.72
2022-08-19T23:27:03.754Z,4.65
2022-08-19T23:29:51.093Z,5.03
2022-08-19T23:32:20.275Z,5.03
2022-08-19T23:34:48.545Z,5.57
2022-08-19T23:37:16.499Z,4.70
2022-08-19T23:39:45.142Z,4.90
2022-08-19T23:42:13.775Z,5.22
2022-08-19T23:44:52.232Z,5.18
2022-08-19T23:47:21.576Z,5.18
2022-08-19T23:49:50.561Z,4.88
2022-08-19T23:52:18.964Z,5.05
2022-08-19T23:54:47.396Z,5.05
2022-08-19T23:57:15.584Z,5.15
2022-08-19T23:59:45.549Z,5.38
